Time;durP1;ratioP1;P1;durP2;ratioP2;P2;SDS_P1;SDS_P2;PMS_P1;PMS_P2;Temp;Humidity;BMP_temperature;BMP_pressure;BME280_temperature;BME280_humidity;BME280_pressure;Samples;Min_cycle;Max_cycle;Signal;HPM_P1;HPM_P2
2022/03/28 00:00:11;;;;;;;1.70;1.60;;;10.10;99.90;;;;;;5125799;27;20278;-60
2022/03/28 00:02:55;;;;;;;1.43;1.33;;;10.00;99.90;;;;;;5126705;27;20241;-59
2022/03/28 00:05:40;;;;;;;2.10;2.00;;;9.90;99.90;;;;;;5125900;27;20199;-53
2022/03/28 00:08:24;;;;;;;1.83;1.63;;;9.90;99.90;;;;;;5124795;27;20217;-56
2022/03/28 00:11:09;;;;;;;3.43;1.47;;;9.90;99.90;;;;;;5126566;27;20180;-52
2022/03/28 00:13:54;;;;;;;1.77;1.37;;;9.90;99.90;;;;;;5125885;27;20221;-56
2022/03/28 00:16:38;;;;;;;1.70;1.60;;;9.70;99.90;;;;;;5125789;27;20268;-55
2022/03/28 00:19:22;;;;;;;2.03;1.77;;;9.70;99.90;;;;;;5126461;27;20379;-56
2022/03/28 00:22:07;;;;;;;2.97;1.57;;;9.80;99.90;;;;;;5125076;27;20253;-50
2022/03/28 00:24:51;;;;;;;1.43;1.33;;;9.70;99.90;;;;;;5125832;27;20199;-53
2022/03/28 00:27:36;;;;;;;1.53;1.43;;;9.70;99.90;;;;;;5125754;27;20275;-53
2022/03/28 00:30:20;;;;;;;1.83;1.70;;;9.70;99.90;;;;;;5125160;27;20253;-46
2022/03/28 00:33:05;;;;;;;1.70;1.60;;;9.60;99.90;;;;;;5126626;27;20192;-49
2022/03/28 00:35:49;;;;;;;1.80;1.70;;;9.70;99.90;;;;;;5125700;27;20191;-52
2022/03/28 00:38:34;;;;;;;2.17;2.07;;;9.60;99.90;;;;;;5124714;27;20184;-53
2022/03/28 00:41:19;;;;;;;4.03;2.17;;;9.60;99.90;;;;;;5125873;27;20235;-55
2022/03/28 00:44:06;;;;;;;2.43;2.00;;;9.50;99.90;;;;;;5125201;27;20190;-50
2022/03/28 00:46:50;;;;;;;1.70;1.60;;;9.50;99.90;;;;;;5124864;27;20192;-56
2022/03/28 00:49:36;;;;;;;1.80;1.67;;;9.40;99.90;;;;;;5126125;27;20190;-52
2022/03/28 00:52:20;;;;;;;2.03;1.80;;;9.30;99.90;;;;;;5124804;27;20309;-56
2022/03/28 00:55:07;;;;;;;2.80;2.37;;;9.30;99.90;;;;;;5125836;27;20317;-51
2022/03/28 00:57:53;;;;;;;3.40;2.30;;;9.20;99.90;;;;;;5125657;27;20223;-59
2022/03/28 01:00:38;;;;;;;1.80;1.70;;;9.20;99.90;;;;;;5124558;27;20261;-56
2022/03/28 01:03:22;;;;;;;2.50;1.97;;;9.10;99.90;;;;;;5125743;27;20227;-60
2022/03/28 01:06:08;;;;;;;1.87;1.80;;;9.20;99.90;;;;;;5125193;27;20287;-52
2022/03/28 01:08:53;;;;;;;1.93;1.83;;;9.10;99.90;;;;;;5124085;27;20203;-51
2022/03/28 01:11:37;;;;;;;2.53;1.80;;;9.10;99.90;;;;;;5125563;27;20213;-55
2022/03/28 01:14:22;;;;;;;5.10;2.40;;;9.00;99.90;;;;;;5124802;27;20268;-56
2022/03/28 01:20:14;;;;;;;2.83;2.00;;;8.90;99.90;;;;;;5126671;27;20298;-56
2022/03/28 01:22:59;;;;;;;3.23;2.13;;;8.80;99.90;;;;;;5125066;27;20278;-59
2022/03/28 01:25:51;;;;;;;2.00;1.73;;;8.80;99.90;;;;;;5124660;27;20226;-58
2022/03/28 01:28:35;;;;;;;11.37;6.47;;;8.80;99.90;;;;;;5125153;27;20221;-54
2022/03/28 01:31:19;;;;;;;3.20;2.67;;;8.70;99.90;;;;;;5124148;27;20199;-55
2022/03/28 01:34:03;;;;;;;2.90;2.23;;;8.70;99.90;;;;;;5124437;27;20265;-56
2022/03/28 01:36:48;;;;;;;3.57;2.60;;;8.70;99.90;;;;;;5124669;27;20188;-60
2022/03/28 01:39:32;;;;;;;3.00;2.50;;;8.60;99.90;;;;;;5122945;27;20215;-55
2022/03/28 01:42:16;;;;;;;12.90;5.67;;;8.60;99.90;;;;;;5124643;27;20212;-58
2022/03/28 01:45:04;;;;;;;3.13;2.33;;;8.60;99.90;;;;;;5124722;27;20194;-57
2022/03/28 01:47:49;;;;;;;3.17;2.23;;;8.50;99.90;;;;;;5123701;27;20234;-60
2022/03/28 01:50:33;;;;;;;2.03;1.90;;;8.50;99.90;;;;;;5125524;27;20230;-57
2022/03/28 01:53:18;;;;;;;2.30;2.10;;;8.50;99.90;;;;;;5124377;27;20241;-56
2022/03/28 01:56:03;;;;;;;3.93;2.60;;;8.50;99.90;;;;;;5123965;27;20359;-51
2022/03/28 01:58:47;;;;;;;2.83;1.90;;;8.40;99.90;;;;;;5124843;27;20215;-56
2022/03/28 02:01:32;;;;;;;3.73;2.33;;;8.40;99.90;;;;;;5123704;27;20195;-49
2022/03/28 02:04:16;;;;;;;3.00;2.03;;;8.30;99.90;;;;;;5124232;27;20230;-49
2022/03/28 02:07:00;;;;;;;4.50;2.27;;;8.20;99.90;;;;;;5124621;27;20208;-48
2022/03/28 02:09:45;;;;;;;6.23;3.17;;;8.20;99.90;;;;;;5122784;27;20187;-48
2022/03/28 02:12:29;;;;;;;3.47;3.10;;;8.30;99.90;;;;;;5124287;27;20200;-47
2022/03/28 02:15:15;;;;;;;3.93;2.63;;;8.20;99.90;;;;;;5124017;27;20260;-58
2022/03/28 02:18:02;;;;;;;5.53;2.50;;;8.20;99.90;;;;;;5123517;27;20243;-48
2022/03/28 02:20:46;;;;;;;4.70;2.60;;;8.00;99.90;;;;;;5124602;27;20227;-48
2022/03/28 02:23:31;;;;;;;3.00;2.43;;;8.00;99.90;;;;;;5124099;27;20203;-55
2022/03/28 02:26:15;;;;;;;6.30;2.93;;;7.90;99.90;;;;;;5123408;28;20191;-59
2022/03/28 02:29:00;;;;;;;3.47;2.33;;;7.90;99.90;;;;;;5124439;27;20215;-59
2022/03/28 02:31:44;;;;;;;3.47;2.70;;;7.80;99.90;;;;;;5127544;27;20203;-58
2022/03/28 02:34:29;;;;;;;2.40;2.20;;;7.90;99.90;;;;;;5128129;27;20281;-52
2022/03/28 02:37:14;;;;;;;2.43;2.00;;;7.80;99.90;;;;;;5128204;27;20248;-50
2022/03/28 02:39:58;;;;;;;2.53;2.33;;;7.70;99.90;;;;;;5126866;27;20254;-59
2022/03/28 02:42:44;;;;;;;9.23;5.17;;;7.60;99.90;;;;;;5128370;27;20285;-56
2022/03/28 02:45:31;;;;;;;3.57;3.23;;;7.60;99.90;;;;;;5128322;27;20283;-60
2022/03/28 02:48:16;;;;;;;1.60;1.50;;;7.60;99.90;;;;;;5127418;27;20195;-60
2022/03/28 02:51:02;;;;;;;3.27;2.70;;;7.40;99.90;;;;;;5127588;27;20245;-59
2022/03/28 02:53:47;;;;;;;3.50;2.20;;;7.40;99.90;;;;;;5127398;27;20217;-52
2022/03/28 02:56:31;;;;;;;2.73;2.33;;;7.40;99.90;;;;;;5126543;27;20234;-50
2022/03/28 02:59:15;;;;;;;3.03;2.20;;;7.40;99.90;;;;;;5127864;27;20303;-51
2022/03/28 03:02:02;;;;;;;2.40;2.30;;;7.40;99.90;;;;;;5127262;27;20233;-55
2022/03/28 03:04:46;;;;;;;3.60;2.43;;;7.40;99.90;;;;;;5127539;27;20195;-52
2022/03/28 03:07:31;;;;;;;6.60;2.27;;;7.30;99.90;;;;;;5127658;27;20305;-56
2022/03/28 03:10:15;;;;;;;3.20;2.20;;;7.40;99.90;;;;;;5126057;27;20264;-54
2022/03/28 03:13:00;;;;;;;5.60;2.10;;;7.30;99.90;;;;;;5127647;27;20293;-56
2022/03/28 03:15:46;;;;;;;4.23;2.30;;;7.40;99.90;;;;;;5127662;27;20199;-59
2022/03/28 03:18:30;;;;;;;3.53;2.50;;;7.30;99.90;;;;;;5126636;27;20241;-50
2022/03/28 03:21:16;;;;;;;3.10;2.77;;;7.30;99.90;;;;;;5128651;27;20211;-51
2022/03/28 03:24:00;;;;;;;3.00;2.40;;;7.20;99.90;;;;;;5126906;27;20283;-56
2022/03/28 03:26:44;;;;;;;2.33;2.13;;;7.30;99.90;;;;;;5126348;27;20263;-54
2022/03/28 03:29:29;;;;;;;1.87;1.63;;;7.20;99.90;;;;;;5128324;27;20259;-57
2022/03/28 03:32:15;;;;;;;4.27;2.50;;;7.20;99.90;;;;;;5126806;27;20196;-53
2022/03/28 03:34:59;;;;;;;1.97;1.83;;;7.20;99.90;;;;;;5126831;27;20192;-59
2022/03/28 03:37:43;;;;;;;32.43;13.67;;;7.20;99.90;;;;;;5127193;27;20194;-59
2022/03/28 03:40:27;;;;;;;3.23;2.73;;;7.20;99.90;;;;;;5124846;27;20231;-56
2022/03/28 03:43:12;;;;;;;2.50;2.30;;;7.20;99.90;;;;;;5127205;27;20746;-53
2022/03/28 03:45:56;;;;;;;2.83;2.43;;;7.10;99.90;;;;;;5126722;27;20200;-53
2022/03/28 03:48:42;;;;;;;3.27;2.23;;;7.00;99.90;;;;;;5125710;27;20252;-49
2022/03/28 03:51:26;;;;;;;2.20;1.97;;;7.00;99.90;;;;;;5127169;27;20192;-55
2022/03/28 03:54:12;;;;;;;3.77;2.60;;;7.00;99.90;;;;;;5126149;27;20244;-54
2022/03/28 03:56:56;;;;;;;2.90;2.23;;;6.90;99.90;;;;;;5125939;27;20191;-58
2022/03/28 03:59:42;;;;;;;6.80;2.97;;;6.90;99.90;;;;;;5127299;27;20223;-57
2022/03/28 04:02:27;;;;;;;2.93;2.53;;;6.90;99.90;;;;;;5126385;27;20235;-53
2022/03/28 04:05:12;;;;;;;3.30;2.47;;;6.90;99.90;;;;;;5126138;27;20240;-56
2022/03/28 04:07:57;;;;;;;3.80;2.97;;;6.80;99.90;;;;;;5126639;27;20613;-58
2022/03/28 04:10:44;;;;;;;5.10;3.17;;;6.90;99.90;;;;;;5125769;27;20227;-57
2022/03/28 04:13:29;;;;;;;4.97;3.00;;;6.80;99.90;;;;;;5126903;27;20257;-56
2022/03/28 04:16:13;;;;;;;3.53;3.20;;;6.90;99.90;;;;;;5126497;27;20195;-60
2022/03/28 04:18:58;;;;;;;4.30;3.17;;;6.70;99.90;;;;;;5124765;27;20223;-60
2022/03/28 04:21:43;;;;;;;3.20;3.00;;;6.70;99.90;;;;;;5127062;27;20283;-56
2022/03/28 04:24:27;;;;;;;29.93;10.40;;;6.80;99.90;;;;;;5125791;27;20275;-52
2022/03/28 04:27:12;;;;;;;5.03;3.03;;;6.70;99.90;;;;;;5124834;27;20187;-59
2022/03/28 04:29:58;;;;;;;3.87;3.40;;;6.60;99.90;;;;;;5126649;27;20248;-52
2022/03/28 04:32:42;;;;;;;3.87;3.03;;;6.70;99.90;;;;;;5125726;27;20283;-58
2022/03/28 04:35:28;;;;;;;13.10;5.00;;;6.70;99.90;;;;;;5125485;27;20241;-53
2022/03/28 04:38:14;;;;;;;4.97;3.00;;;6.70;99.90;;;;;;5125910;27;20192;-54
2022/03/28 04:40:58;;;;;;;2.80;2.60;;;6.70;99.90;;;;;;5124146;27;20235;-56
2022/03/28 04:43:43;;;;;;;4.23;3.13;;;6.50;99.90;;;;;;5125783;27;20200;-53
2022/03/28 04:46:28;;;;;;;3.67;2.27;;;6.60;99.90;;;;;;5125444;27;20196;-51
2022/03/28 04:49:14;;;;;;;3.97;2.40;;;6.50;99.90;;;;;;5124047;27;20195;-55
2022/03/28 04:51:59;;;;;;;3.87;3.47;;;6.40;99.90;;;;;;5125794;27;20260;-59
2022/03/28 04:54:43;;;;;;;5.17;3.27;;;6.40;99.90;;;;;;5125588;27;20226;-54
2022/03/28 04:57:27;;;;;;;2.77;2.57;;;6.40;99.90;;;;;;5124590;27;20195;-55
2022/03/28 05:00:12;;;;;;;8.60;3.17;;;6.30;99.90;;;;;;5126015;27;20268;-59
2022/03/28 05:02:58;;;;;;;4.03;2.73;;;6.20;99.90;;;;;;5124785;27;20222;-56
2022/03/28 05:05:42;;;;;;;4.03;3.63;;;6.20;99.90;;;;;;5125195;27;20710;-53
2022/03/28 05:08:26;;;;;;;3.67;2.93;;;6.30;99.90;;;;;;5125734;27;20312;-53
2022/03/28 05:11:10;;;;;;;4.27;2.70;;;6.40;99.90;;;;;;5124050;27;20256;-60
2022/03/28 05:13:58;;;;;;;4.97;3.10;;;6.30;99.90;;;;;;5125069;27;20194;-49
2022/03/28 05:16:44;;;;;;;4.30;2.30;;;6.40;99.90;;;;;;5125309;27;20183;-57
2022/03/28 05:19:29;;;;;;;3.97;2.70;;;6.30;99.90;;;;;;5123939;27;20219;-59
2022/03/28 05:22:13;;;;;;;4.10;2.63;;;6.40;99.90;;;;;;5125230;27;20191;-60
2022/03/28 05:24:58;;;;;;;2.43;2.13;;;6.40;99.90;;;;;;5124999;27;20199;-60
2022/03/28 05:27:45;;;;;;;3.23;2.93;;;6.50;99.90;;;;;;5124129;27;20223;-58
2022/03/28 05:30:29;;;;;;;3.00;2.57;;;6.50;99.90;;;;;;5126361;27;20256;-53
2022/03/28 05:33:14;;;;;;;3.63;3.07;;;6.60;99.90;;;;;;5124153;27;20215;-56
2022/03/28 05:35:59;;;;;;;3.20;2.60;;;6.60;99.90;;;;;;5123840;27;20278;-53
2022/03/28 05:38:45;;;;;;;8.07;2.93;;;6.70;99.90;;;;;;5124490;27;20241;-54
2022/03/28 05:41:31;;;;;;;5.70;3.63;;;6.70;99.90;;;;;;5122959;27;20654;-57
2022/03/28 05:44:15;;;;;;;3.90;2.53;;;6.60;99.90;;;;;;5124154;27;20183;-59
2022/03/28 05:47:11;;;;;;;5.97;3.00;;;6.70;99.90;;;;;;5124555;27;20192;-52
2022/03/28 05:49:56;;;;;;;10.67;3.43;;;6.60;99.90;;;;;;5122639;27;20195;-58
2022/03/28 05:52:40;;;;;;;4.93;3.03;;;6.60;99.90;;;;;;5124470;27;20191;-52
2022/03/28 05:55:25;;;;;;;5.50;3.27;;;6.70;99.90;;;;;;5124344;27;20191;-59
2022/03/28 05:58:10;;;;;;;3.57;2.90;;;6.70;99.90;;;;;;5123773;27;20207;-55
2022/03/28 06:00:55;;;;;;;6.13;3.87;;;6.70;99.90;;;;;;5125139;27;20226;-61
2022/03/28 06:03:40;;;;;;;9.20;3.87;;;6.80;99.90;;;;;;5138810;27;20202;-59
2022/03/28 06:06:25;;;;;;;6.63;3.57;;;6.90;99.90;;;;;;5123613;27;20215;-60
2022/03/28 06:09:10;;;;;;;3.27;2.97;;;7.00;99.90;;;;;;5124482;27;20195;-59
2022/03/28 06:11:54;;;;;;;10.20;3.20;;;6.90;99.90;;;;;;5123928;27;20257;-60
2022/03/28 06:14:40;;;;;;;3.40;3.07;;;7.00;99.90;;;;;;5124180;27;20190;-61
2022/03/28 06:17:25;;;;;;;3.50;3.03;;;7.10;99.90;;;;;;5123920;27;20236;-57
2022/03/28 06:20:11;;;;;;;5.27;3.60;;;7.10;99.90;;;;;;5122784;27;20233;-58
2022/03/28 06:22:55;;;;;;;5.77;3.97;;;7.20;99.90;;;;;;5125022;27;20194;-58
2022/03/28 06:25:40;;;;;;;7.03;2.93;;;7.10;99.90;;;;;;5123961;28;20251;-60
2022/03/28 06:28:24;;;;;;;4.80;2.90;;;7.00;99.90;;;;;;5123355;28;20198;-59
2022/03/28 06:31:09;;;;;;;6.63;3.70;;;7.10;99.90;;;;;;5125223;28;20260;-58
2022/03/28 06:34:01;;;;;;;5.17;4.20;;;7.20;99.90;;;;;;5123731;28;20199;-61
2022/03/28 06:36:47;;;;;;;6.07;4.63;;;7.30;99.90;;;;;;5123432;28;20183;-60
2022/03/28 06:39:34;;;;;;;6.43;4.17;;;7.40;99.90;;;;;;5124704;28;20271;-61
2022/03/28 06:42:18;;;;;;;5.23;3.73;;;7.60;99.90;;;;;;5123330;28;20252;-58
2022/03/28 06:45:04;;;;;;;7.07;3.53;;;7.70;99.90;;;;;;5123693;28;20195;-55
2022/03/28 06:47:51;;;;;;;5.53;3.57;;;7.80;99.90;;;;;;5124069;28;20187;-60
2022/03/28 06:50:35;;;;;;;5.93;3.43;;;7.90;99.90;;;;;;5122332;28;20198;-52
2022/03/28 06:53:19;;;;;;;4.30;3.33;;;8.00;99.90;;;;;;5123703;28;20199;-53
2022/03/28 06:56:05;;;;;;;4.20;2.97;;;8.00;99.90;;;;;;5123884;28;20191;-57
2022/03/28 06:58:49;;;;;;;4.00;3.13;;;8.10;99.90;;;;;;5122833;28;20240;-57
2022/03/28 07:01:33;;;;;;;4.23;2.93;;;8.20;99.90;;;;;;5124254;28;20233;-55
2022/03/28 07:04:20;;;;;;;4.87;3.43;;;8.40;99.90;;;;;;5123607;28;20257;-60
2022/03/28 07:07:04;;;;;;;2.87;2.63;;;8.40;99.90;;;;;;5123143;28;20196;-60
2022/03/28 07:09:48;;;;;;;2.97;2.67;;;8.60;99.90;;;;;;5124030;28;20276;-58
2022/03/28 07:12:33;;;;;;;4.67;3.07;;;8.70;99.90;;;;;;5123496;28;20195;-56
2022/03/28 07:15:17;;;;;;;6.23;4.20;;;8.80;99.90;;;;;;5123038;27;20199;-54
2022/03/28 07:18:07;;;;;;;5.50;3.63;;;8.80;99.90;;;;;;5127225;27;20217;-59
2022/03/28 07:20:51;;;;;;;5.20;3.10;;;9.00;99.90;;;;;;5125693;27;20227;-58
2022/03/28 07:23:36;;;;;;;6.07;3.77;;;9.10;99.90;;;;;;5127097;27;20191;-54
2022/03/28 07:26:21;;;;;;;10.83;5.13;;;9.20;99.90;;;;;;5127048;27;20275;-58
2022/03/28 07:29:06;;;;;;;7.50;5.00;;;9.30;99.90;;;;;;5125906;27;20194;-58
2022/03/28 07:31:52;;;;;;;4.53;2.90;;;9.40;99.90;;;;;;5127867;27;20195;-51
2022/03/28 07:34:38;;;;;;;7.57;2.90;;;9.50;99.90;;;;;;5126868;27;20187;-56
2022/03/28 07:37:22;;;;;;;4.60;3.87;;;9.60;99.90;;;;;;5125797;27;20214;-58
2022/03/28 07:40:08;;;;;;;4.60;3.70;;;9.70;99.90;;;;;;5127467;27;20369;-56
2022/03/28 07:42:53;;;;;;;3.37;3.07;;;9.80;99.90;;;;;;5126216;27;20187;-59
2022/03/28 07:45:37;;;;;;;4.53;3.40;;;9.90;99.90;;;;;;5126311;27;20284;-53
2022/03/28 07:48:22;;;;;;;5.57;3.97;;;9.90;99.90;;;;;;5127245;27;20195;-61
2022/03/28 07:51:06;;;;;;;5.67;3.77;;;10.00;99.90;;;;;;5126127;27;20590;-61
2022/03/28 07:53:52;;;;;;;12.10;3.63;;;10.10;99.90;;;;;;5126802;27;20192;-55
2022/03/28 07:56:36;;;;;;;3.87;2.90;;;10.30;99.90;;;;;;5126844;27;20200;-54
2022/03/28 07:59:23;;;;;;;3.27;2.97;;;10.40;99.90;;;;;;5125812;27;20259;-50
2022/03/28 08:02:08;;;;;;;5.13;3.67;;;10.60;99.90;;;;;;5127644;27;20221;-51
2022/03/28 08:04:52;;;;;;;3.30;3.07;;;10.70;99.90;;;;;;5126545;27;20195;-57
2022/03/28 08:07:36;;;;;;;4.27;3.30;;;11.00;99.90;;;;;;5125377;27;20198;-59
2022/03/28 08:10:22;;;;;;;3.53;3.23;;;11.30;99.90;;;;;;5126842;27;20187;-55
2022/03/28 08:13:06;;;;;;;4.47;3.50;;;11.50;99.90;;;;;;5140758;27;20203;-56
2022/03/28 08:15:50;;;;;;;4.50;3.47;;;11.60;99.90;;;;;;5125722;27;20208;-51
2022/03/28 08:18:39;;;;;;;7.70;3.90;;;12.10;99.90;;;;;;5126793;27;20195;-62
2022/03/28 08:21:23;;;;;;;3.60;3.07;;;12.30;99.90;;;;;;5125713;27;20241;-58
2022/03/28 08:24:07;;;;;;;4.47;3.67;;;12.70;99.90;;;;;;5126073;27;20275;-59
2022/03/28 08:26:52;;;;;;;3.80;3.50;;;12.40;99.90;;;;;;5125726;27;20301;-56
2022/03/28 08:29:36;;;;;;;4.67;3.50;;;12.80;99.90;;;;;;5124180;27;20201;-47
2022/03/28 08:32:21;;;;;;;4.93;3.90;;;12.90;99.90;;;;;;5126653;27;20244;-61
2022/03/28 08:35:06;;;;;;;4.63;4.00;;;12.90;99.90;;;;;;5126223;27;20233;-60
2022/03/28 08:37:50;;;;;;;4.47;3.30;;;12.80;99.90;;;;;;5125269;27;20198;-54
2022/03/28 08:40:34;;;;;;;8.23;3.73;;;13.10;99.90;;;;;;5126309;27;20227;-57
2022/03/28 08:43:21;;;;;;;6.07;4.00;;;13.10;99.90;;;;;;5125059;27;20204;-57
2022/03/28 08:46:08;;;;;;;5.10;3.27;;;13.00;99.90;;;;;;5124857;27;20192;-50
2022/03/28 08:48:54;;;;;;;5.00;3.33;;;13.20;99.90;;;;;;5125931;27;20225;-61
2022/03/28 08:51:39;;;;;;;4.93;3.80;;;13.50;99.90;;;;;;5124997;27;20192;-61
2022/03/28 08:54:24;;;;;;;4.53;3.80;;;14.00;99.90;;;;;;5125239;27;20256;-49
2022/03/28 08:57:11;;;;;;;6.47;4.53;;;14.20;99.90;;;;;;5125608;27;20199;-57
2022/03/28 08:59:55;;;;;;;6.63;4.30;;;14.30;99.80;;;;;;5123884;27;20227;-57
2022/03/28 09:02:47;;;;;;;6.67;4.30;;;14.60;99.90;;;;;;5125932;27;20219;-56
2022/03/28 09:05:34;;;;;;;5.63;4.23;;;14.40;99.30;;;;;;5125513;27;20191;-54
2022/03/28 09:08:23;;;;;;;9.43;4.73;;;14.40;99.50;;;;;;5123638;27;20209;-58
2022/03/28 09:11:21;;;;;;;8.37;5.20;;;15.20;98.30;;;;;;5125547;27;20226;-59
2022/03/28 09:14:05;;;;;;;9.23;4.27;;;15.10;98.40;;;;;;5125090;27;20199;-56
2022/03/28 09:17:05;;;;;;;8.97;5.37;;;15.40;97.80;;;;;;5124290;27;20206;-52
2022/03/28 09:20:02;;;;;;;6.83;4.70;;;15.80;96.90;;;;;;5124847;27;20254;-58
2022/03/28 09:22:47;;;;;;;6.23;4.53;;;16.40;95.70;;;;;;5139916;27;20238;-53
2022/03/28 09:25:50;;;;;;;8.00;5.30;;;16.20;95.40;;;;;;5123699;27;20187;-55
2022/03/28 09:28:47;;;;;;;8.50;4.63;;;16.40;95.00;;;;;;5125626;27;20268;-56
2022/03/28 09:31:36;;;;;;;6.77;5.07;;;16.60;95.30;;;;;;5124966;27;20241;-56
2022/03/28 09:34:20;;;;;;;7.00;5.03;;;16.70;94.10;;;;;;5123376;27;20196;-61
2022/03/28 09:37:04;;;;;;;7.33;4.63;;;17.00;93.80;;;;;;5125852;27;20279;-61
2022/03/28 09:39:49;;;;;;;7.80;5.00;;;17.60;93.30;;;;;;5123382;27;20238;-59
2022/03/28 09:42:47;;;;;;;6.60;5.47;;;18.10;92.60;;;;;;5123453;27;20261;-54
2022/03/28 09:45:38;;;;;;;6.68;4.60;;;18.40;91.90;;;;;;5124572;27;20250;-54
2022/03/28 09:48:26;;;;;;;9.50;5.07;;;19.70;90.30;;;;;;5124429;27;20245;-57
2022/03/28 09:51:11;;;;;;;6.13;5.20;;;19.90;87.90;;;;;;5123931;27;20241;-56
2022/03/28 09:53:57;;;;;;;7.18;5.13;;;19.80;87.70;;;;;;5124848;27;20195;-57
2022/03/28 09:56:42;;;;;;;8.35;5.07;;;19.60;89.50;;;;;;5124546;27;20218;-60
2022/03/28 09:59:37;;;;;;;9.10;5.00;;;20.50;85.10;;;;;;5123861;27;20220;-61
2022/03/28 10:02:24;;;;;;;6.45;5.20;;;21.10;83.70;;;;;;5125413;27;20265;-55
2022/03/28 10:05:10;;;;;;;8.40;4.97;;;21.50;81.50;;;;;;5123795;27;20188;-56
2022/03/28 10:07:57;;;;;;;7.05;5.25;;;21.50;81.10;;;;;;5138201;27;20233;-53
2022/03/28 10:10:42;;;;;;;7.68;5.30;;;22.20;77.90;;;;;;5124465;27;20195;-54
2022/03/28 10:13:29;;;;;;;7.72;5.72;;;22.50;78.80;;;;;;5122568;27;20195;-52
2022/03/28 10:16:14;;;;;;;8.27;6.32;;;22.60;75.80;;;;;;5124197;27;20278;-57
2022/03/28 10:18:58;;;;;;;6.40;5.25;;;22.10;77.20;;;;;;5124058;27;21334;-56
2022/03/28 10:21:44;;;;;;;5.97;5.05;;;22.70;75.20;;;;;;5123154;27;20210;-57
2022/03/28 10:24:33;;;;;;;7.80;5.40;;;23.10;74.10;;;;;;5124636;27;20188;-61
2022/03/28 10:27:18;;;;;;;7.45;4.88;;;23.70;72.20;;;;;;5123708;28;20317;-59
2022/03/28 10:30:20;;;;;;;6.82;5.03;;;24.70;69.60;;;;;;5123756;28;20282;-60
2022/03/28 10:33:20;;;;;;;7.65;5.82;;;25.00;67.70;;;;;;5124799;28;20256;-60
2022/03/28 10:36:24;;;;;;;6.50;4.88;;;25.20;65.30;;;;;;5124268;28;20200;-53
2022/03/28 10:39:30;;;;;;;6.95;5.45;;;25.30;65.60;;;;;;5123090;28;20281;-54
2022/03/28 10:42:24;;;;;;;7.63;5.32;;;25.30;64.40;;;;;;5123615;28;20196;-49
2022/03/28 10:45:08;;;;;;;6.97;4.47;;;25.90;62.20;;;;;;5123753;28;20207;-53
2022/03/28 10:47:55;;;;;;;5.93;4.97;;;26.40;60.50;;;;;;5122759;28;20245;-58
2022/03/28 10:50:53;;;;;;;6.03;5.30;;;27.20;57.70;;;;;;5123962;27;20191;-54
2022/03/28 10:53:41;;;;;;;6.53;4.72;;;26.30;58.60;;;;;;5127943;27;20195;-55
2022/03/28 10:56:39;;;;;;;5.20;4.40;;;27.20;57.30;;;;;;5127410;27;20232;-57
2022/03/28 10:59:26;;;;;;;6.90;4.63;;;26.60;55.40;;;;;;5127779;27;20227;-59
2022/03/28 11:02:27;;;;;;;4.93;3.95;;;26.80;54.90;;;;;;5128462;27;20210;-51
2022/03/28 11:05:15;;;;;;;6.57;3.50;;;28.10;53.10;;;;;;5126811;27;20187;-54
2022/03/28 11:08:29;;;;;;;3.63;3.33;;;27.50;53.00;;;;;;5127492;27;20199;-54
2022/03/28 11:11:27;;;;;;;3.90;3.35;;;29.00;51.70;;;;;;5142656;27;20237;-59
2022/03/28 11:14:15;;;;;;;5.07;3.10;;;26.20;52.80;;;;;;5126385;27;20198;-55
2022/03/28 11:17:22;;;;;;;6.90;3.28;;;27.60;52.80;;;;;;5141734;27;20192;-53
2022/03/28 11:20:14;;;;;;;4.72;3.10;;;28.40;51.10;;;;;;5127781;27;20221;-53
2022/03/28 11:23:09;;;;;;;3.00;2.80;;;27.50;52.20;;;;;;5127022;27;20261;-60
2022/03/28 11:25:58;;;;;;;3.40;3.10;;;27.00;51.60;;;;;;5127098;27;20218;-49
2022/03/28 11:28:43;;;;;;;3.53;2.92;;;26.90;51.40;;;;;;5127741;27;20693;-59
2022/03/28 11:31:27;;;;;;;3.05;2.78;;;26.60;49.80;;;;;;5127071;27;20195;-58
2022/03/28 11:34:12;;;;;;;3.58;3.15;;;26.00;51.30;;;;;;5127663;27;20271;-59
2022/03/28 11:36:58;;;;;;;3.25;2.97;;;26.10;50.70;;;;;;5127314;27;20203;-54
2022/03/28 11:39:54;;;;;;;5.13;3.15;;;28.00;49.80;;;;;;5125927;27;20272;-50
2022/03/28 11:42:45;;;;;;;3.70;3.30;;;28.40;48.20;;;;;;5126629;27;20188;-62
2022/03/28 11:45:31;;;;;;;3.38;3.05;;;27.10;49.00;;;;;;5126850;27;20191;-59
2022/03/28 11:48:17;;;;;;;5.13;3.63;;;28.00;49.30;;;;;;5125785;27;20211;-50
2022/03/28 11:51:16;;;;;;;6.75;3.67;;;28.00;47.80;;;;;;5126798;27;20257;-60
2022/03/28 11:54:06;;;;;;;4.30;3.85;;;26.70;47.60;;;;;;5126720;27;20222;-60
2022/03/28 11:59:54;;;;;;;4.43;3.33;;;28.20;48.10;;;;;;5128287;27;20365;-61
2022/03/28 12:02:59;;;;;;;4.63;3.22;;;27.30;47.40;;;;;;5126999;27;20302;-51
2022/03/28 12:05:46;;;;;;;6.15;3.72;;;26.60;48.60;;;;;;5125461;27;20288;-58
2022/03/28 12:08:30;;;;;;;7.25;3.88;;;28.30;46.60;;;;;;5126831;27;20218;-56
2022/03/28 12:11:15;;;;;;;4.25;3.45;;;26.80;48.10;;;;;;5126729;27;20211;-49
2022/03/28 12:13:59;;;;;;;7.03;3.35;;;28.90;46.00;;;;;;5125670;27;20199;-53
2022/03/28 12:16:47;;;;;;;6.72;3.65;;;28.60;45.60;;;;;;5127202;27;20226;-50
2022/03/28 12:19:32;;;;;;;5.40;3.83;;;29.50;44.50;;;;;;5126756;27;20219;-48
2022/03/28 12:22:21;;;;;;;3.45;3.13;;;28.00;45.60;;;;;;5126069;27;20279;-53
2022/03/28 12:25:06;;;;;;;4.60;3.30;;;29.20;44.80;;;;;;5127034;27;20242;-51
2022/03/28 12:27:56;;;;;;;5.82;3.83;;;29.00;44.90;;;;;;5125792;27;20262;-58
2022/03/28 12:30:52;;;;;;;4.72;3.63;;;30.10;44.30;;;;;;5126383;27;20191;-56
2022/03/28 12:33:38;;;;;;;4.55;2.90;;;31.50;42.20;;;;;;5127307;27;20187;-53
2022/03/28 12:36:26;;;;;;;4.07;3.15;;;32.30;42.00;;;;;;5125766;27;20191;-57
2022/03/28 12:39:11;;;;;;;3.88;3.05;;;30.50;41.50;;;;;;5125781;27;20195;-51
2022/03/28 12:41:57;;;;;;;3.65;3.33;;;29.60;43.30;;;;;;5125946;27;20227;-51
2022/03/28 12:44:42;;;;;;;3.55;3.13;;;28.00;44.40;;;;;;5124570;27;20195;-60
2022/03/28 12:47:28;;;;;;;5.38;3.72;;;26.70;45.60;;;;;;5125684;27;20188;-56
2022/03/28 12:50:12;;;;;;;3.35;3.05;;;27.10;45.10;;;;;;5126223;27;20199;-58
2022/03/28 12:53:11;;;;;;;4.55;3.55;;;28.00;44.20;;;;;;5124875;27;20253;-54
2022/03/28 12:56:20;;;;;;;3.67;3.10;;;26.70;45.10;;;;;;5125570;27;20245;-60
2022/03/28 12:59:04;;;;;;;3.92;3.63;;;27.30;44.80;;;;;;5125906;27;20191;-55
2022/03/28 13:01:50;;;;;;;4.20;3.50;;;26.80;45.50;;;;;;5124875;27;20191;-54
2022/03/28 13:04:46;;;;;;;4.10;3.58;;;26.40;45.10;;;;;;5126232;27;20264;-61
2022/03/28 13:07:32;;;;;;;7.82;4.03;;;25.80;46.70;;;;;;5124974;27;20187;-55
2022/03/28 13:10:23;;;;;;;3.83;3.45;;;25.80;47.00;;;;;;5123833;27;20257;-60
2022/03/28 13:13:07;;;;;;;3.53;2.80;;;25.30;46.80;;;;;;5125385;27;20195;-57
2022/03/28 13:15:52;;;;;;;4.65;2.67;;;26.20;46.10;;;;;;5140098;27;20229;-50
2022/03/28 13:18:37;;;;;;;3.63;2.92;;;26.80;44.60;;;;;;5123841;27;20200;-50
2022/03/28 13:21:30;;;;;;;3.58;2.60;;;28.10;44.30;;;;;;5125419;27;20284;-57
2022/03/28 13:28:08;;;;;;;3.70;3.33;;;29.20;43.90;;;;;;5125713;27;20263;-53
2022/03/28 13:30:57;;;;;;;4.78;2.67;;;29.50;42.50;;;;;;5124633;27;20277;-58
2022/03/28 13:33:41;;;;;;;5.65;3.17;;;30.20;42.60;;;;;;5125504;27;20219;-56
2022/03/28 13:36:25;;;;;;;2.83;2.58;;;29.60;42.10;;;;;;5123788;27;20196;-59
2022/03/28 13:39:10;;;;;;;3.28;2.97;;;30.70;41.30;;;;;;5124643;27;20273;-62
2022/03/28 13:41:55;;;;;;;4.63;2.80;;;30.20;41.00;;;;;;5124532;27;20223;-51
2022/03/28 13:44:39;;;;;;;2.58;2.33;;;28.60;41.00;;;;;;5123506;27;20191;-58
2022/03/28 13:47:23;;;;;;;3.10;2.20;;;28.50;41.00;;;;;;5125242;27;20260;-56
2022/03/28 13:50:07;;;;;;;2.88;2.60;;;28.70;42.30;;;;;;5125226;27;20206;-61
2022/03/28 13:52:52;;;;;;;2.53;2.30;;;29.70;41.40;;;;;;5124122;27;20195;-54
2022/03/28 13:55:37;;;;;;;3.10;2.20;;;31.90;39.60;;;;;;5125849;27;20191;-57
2022/03/28 13:58:22;;;;;;;2.42;2.22;;;31.80;39.60;;;;;;5124375;27;20199;-60
2022/03/28 14:01:07;;;;;;;2.45;2.25;;;31.90;39.30;;;;;;5124362;27;20261;-59
2022/03/28 14:03:51;;;;;;;4.20;2.50;;;32.90;38.90;;;;;;5124950;27;20191;-55
2022/03/28 14:06:36;;;;;;;2.17;1.98;;;32.60;38.50;;;;;;5124618;27;20215;-59
2022/03/28 14:09:20;;;;;;;4.28;2.42;;;31.90;39.20;;;;;;5124798;27;20245;-59
2022/03/28 14:12:05;;;;;;;3.33;2.72;;;29.90;39.80;;;;;;5124774;27;20187;-59
2022/03/28 14:14:49;;;;;;;2.97;2.78;;;28.20;40.70;;;;;;5124403;27;20191;-55
2022/03/28 14:17:37;;;;;;;3.95;2.83;;;28.40;40.30;;;;;;5124866;27;20252;-61
2022/03/28 14:20:21;;;;;;;6.00;2.97;;;28.00;40.80;;;;;;5124124;27;20226;-59
2022/03/28 14:23:06;;;;;;;4.80;2.83;;;29.00;39.80;;;;;;5123286;27;20216;-52
2022/03/28 14:25:50;;;;;;;2.88;2.67;;;30.00;39.80;;;;;;5124605;27;21015;-60
2022/03/28 14:28:35;;;;;;;2.60;2.40;;;29.00;39.40;;;;;;5124061;27;20262;-59
2022/03/28 14:31:19;;;;;;;5.68;3.00;;;30.30;39.10;;;;;;5123610;28;20191;-61
2022/03/28 14:34:04;;;;;;;3.08;2.78;;;28.80;39.90;;;;;;5125398;28;20620;-61
2022/03/28 14:36:48;;;;;;;5.60;3.22;;;28.40;39.30;;;;;;5108511;28;20249;-54
2022/03/28 14:39:34;;;;;;;5.30;3.17;;;29.20;40.10;;;;;;5123713;28;20249;-59
2022/03/28 14:42:19;;;;;;;4.68;3.15;;;31.20;38.80;;;;;;5123826;28;20203;-54